sensor_id;sensor_type;location;lat;lon;timestamp;P1;durP1;ratioP1;P2;durP2;ratioP2
21326;SDS011;10822;51.532;6.770;2023-04-01T00:00:07;7.93;;;2.22;;
21326;SDS011;10822;51.532;6.770;2023-04-01T00:02:34;8.98;;;2.67;;
21326;SDS011;10822;51.532;6.770;2023-04-01T00:05:00;6.28;;;3.17;;
21326;SDS011;10822;51.532;6.770;2023-04-01T00:07:26;7.22;;;2.75;;
21326;SDS011;10822;51.532;6.770;2023-04-01T00:09:52;5.93;;;2.45;;
21326;SDS011;10822;51.532;6.770;2023-04-01T00:12:18;5.93;;;1.92;;
21326;SDS011;10822;51.532;6.770;2023-04-01T00:14:44;6.53;;;2.33;;
21326;SDS011;10822;51.532;6.770;2023-04-01T00:17:10;7.55;;;2.45;;
21326;SDS011;10822;51.532;6.770;2023-04-01T00:19:36;8.52;;;3.13;;
21326;SDS011;10822;51.532;6.770;2023-04-01T00:22:02;6.90;;;2.58;;
21326;SDS011;10822;51.532;6.770;2023-04-01T00:24:29;10.02;;;3.90;;
21326;SDS011;10822;51.532;6.770;2023-04-01T00:26:55;6.72;;;3.60;;
21326;SDS011;10822;51.532;6.770;2023-04-01T00:29:21;10.27;;;4.43;;
21326;SDS011;10822;51.532;6.770;2023-04-01T00:31:49;9.63;;;4.30;;
21326;SDS011;10822;51.532;6.770;2023-04-01T00:34:14;12.10;;;5.07;;
21326;SDS011;10822;51.532;6.770;2023-04-01T00:36:40;10.65;;;4.80;;
21326;SDS011;10822;51.532;6.770;2023-04-01T00:39:06;8.35;;;4.38;;
21326;SDS011;10822;51.532;6.770;2023-04-01T00:41:32;9.52;;;4.07;;
21326;SDS011;10822;51.532;6.770;2023-04-01T00:44:14;10.50;;;3.55;;
21326;SDS011;10822;51.532;6.770;2023-04-01T00:46:41;5.72;;;2.22;;
21326;SDS011;10822;51.532;6.770;2023-04-01T00:49:07;6.65;;;2.55;;
21326;SDS011;10822;51.532;6.770;2023-04-01T00:51:34;7.95;;;3.30;;
21326;SDS011;10822;51.532;6.770;2023-04-01T00:54:01;10.32;;;3.75;;
21326;SDS011;10822;51.532;6.770;2023-04-01T00:56:39;8.73;;;3.75;;
21326;SDS011;10822;51.532;6.770;2023-04-01T00:59:08;9.98;;;5.63;;
21326;SDS011;10822;51.532;6.770;2023-04-01T01:01:35;7.13;;;3.35;;
21326;SDS011;10822;51.532;6.770;2023-04-01T01:04:02;7.28;;;2.78;;
21326;SDS011;10822;51.532;6.770;2023-04-01T01:11:43;11.13;;;5.35;;
21326;SDS011;10822;51.532;6.770;2023-04-01T01:16:41;12.48;;;4.18;;
21326;SDS011;10822;51.532;6.770;2023-04-01T01:27:11;6.57;;;2.60;;
21326;SDS011;10822;51.532;6.770;2023-04-01T01:32:08;6.38;;;2.13;;
21326;SDS011;10822;51.532;6.770;2023-04-01T01:37:18;5.28;;;2.05;;
21326;SDS011;10822;51.532;6.770;2023-04-01T01:39:47;3.00;;;1.60;;
21326;SDS011;10822;51.532;6.770;2023-04-01T01:42:14;5.25;;;2.35;;
21326;SDS011;10822;51.532;6.770;2023-04-01T01:44:41;6.75;;;2.67;;
21326;SDS011;10822;51.532;6.770;2023-04-01T01:47:08;4.15;;;2.00;;
21326;SDS011;10822;51.532;6.770;2023-04-01T01:49:34;5.13;;;2.33;;
21326;SDS011;10822;51.532;6.770;2023-04-01T01:52:01;5.47;;;2.35;;
21326;SDS011;10822;51.532;6.770;2023-04-01T01:54:28;8.05;;;2.42;;
21326;SDS011;10822;51.532;6.770;2023-04-01T01:57:01;9.32;;;4.53;;
21326;SDS011;10822;51.532;6.770;2023-04-01T01:59:29;11.40;;;4.70;;
21326;SDS011;10822;51.532;6.770;2023-04-01T02:01:56;13.07;;;5.28;;
21326;SDS011;10822;51.532;6.770;2023-04-01T02:04:23;9.77;;;4.72;;
21326;SDS011;10822;51.532;6.770;2023-04-01T02:06:54;9.85;;;4.40;;
21326;SDS011;10822;51.532;6.770;2023-04-01T02:09:21;8.57;;;4.90;;
21326;SDS011;10822;51.532;6.770;2023-04-01T02:11:49;10.13;;;5.30;;
21326;SDS011;10822;51.532;6.770;2023-04-01T02:14:17;7.95;;;4.43;;
21326;SDS011;10822;51.532;6.770;2023-04-01T02:16:47;6.78;;;2.72;;
21326;SDS011;10822;51.532;6.770;2023-04-01T02:19:15;8.55;;;3.00;;
21326;SDS011;10822;51.532;6.770;2023-04-01T02:21:47;8.90;;;3.17;;
21326;SDS011;10822;51.532;6.770;2023-04-01T02:24:14;9.88;;;5.57;;
21326;SDS011;10822;51.532;6.770;2023-04-01T02:26:41;9.85;;;5.80;;
21326;SDS011;10822;51.532;6.770;2023-04-01T02:29:07;9.18;;;5.47;;
21326;SDS011;10822;51.532;6.770;2023-04-01T02:31:34;9.57;;;3.63;;
21326;SDS011;10822;51.532;6.770;2023-04-01T02:34:00;7.22;;;4.18;;
21326;SDS011;10822;51.532;6.770;2023-04-01T02:36:27;7.95;;;3.72;;
21326;SDS011;10822;51.532;6.770;2023-04-01T02:38:54;6.43;;;4.10;;
21326;SDS011;10822;51.532;6.770;2023-04-01T02:41:21;7.40;;;3.60;;
21326;SDS011;10822;51.532;6.770;2023-04-01T02:43:47;5.22;;;1.70;;
21326;SDS011;10822;51.532;6.770;2023-04-01T02:46:14;3.53;;;1.58;;
21326;SDS011;10822;51.532;6.770;2023-04-01T02:48:40;4.03;;;2.13;;
21326;SDS011;10822;51.532;6.770;2023-04-01T02:51:06;6.00;;;2.80;;
21326;SDS011;10822;51.532;6.770;2023-04-01T02:53:32;6.15;;;3.17;;
21326;SDS011;10822;51.532;6.770;2023-04-01T02:55:58;5.75;;;3.22;;
21326;SDS011;10822;51.532;6.770;2023-04-01T02:58:24;8.38;;;4.93;;
21326;SDS011;10822;51.532;6.770;2023-04-01T03:00:50;7.53;;;4.05;;
21326;SDS011;10822;51.532;6.770;2023-04-01T03:03:16;7.25;;;2.90;;
21326;SDS011;10822;51.532;6.770;2023-04-01T03:05:42;4.72;;;2.50;;
21326;SDS011;10822;51.532;6.770;2023-04-01T03:08:08;4.15;;;1.42;;
21326;SDS011;10822;51.532;6.770;2023-04-01T03:10:34;4.78;;;2.13;;
21326;SDS011;10822;51.532;6.770;2023-04-01T03:13:00;1.98;;;1.20;;
21326;SDS011;10822;51.532;6.770;2023-04-01T03:15:26;3.15;;;1.00;;
21326;SDS011;10822;51.532;6.770;2023-04-01T03:17:52;2.38;;;1.80;;
21326;SDS011;10822;51.532;6.770;2023-04-01T03:20:18;5.93;;;2.60;;
21326;SDS011;10822;51.532;6.770;2023-04-01T03:22:45;5.22;;;2.33;;
21326;SDS011;10822;51.532;6.770;2023-04-01T03:25:11;3.40;;;1.65;;
21326;SDS011;10822;51.532;6.770;2023-04-01T03:27:37;2.47;;;1.52;;
21326;SDS011;10822;51.532;6.770;2023-04-01T03:30:04;3.50;;;2.00;;
21326;SDS011;10822;51.532;6.770;2023-04-01T03:32:30;2.85;;;1.60;;
21326;SDS011;10822;51.532;6.770;2023-04-01T03:34:57;3.55;;;1.98;;
21326;SDS011;10822;51.532;6.770;2023-04-01T03:37:23;2.88;;;2.00;;
21326;SDS011;10822;51.532;6.770;2023-04-01T03:39:49;3.13;;;1.75;;
21326;SDS011;10822;51.532;6.770;2023-04-01T03:42:15;4.43;;;2.20;;
21326;SDS011;10822;51.532;6.770;2023-04-01T03:44:41;3.92;;;2.10;;
21326;SDS011;10822;51.532;6.770;2023-04-01T03:47:07;4.18;;;2.45;;
21326;SDS011;10822;51.532;6.770;2023-04-01T03:49:34;3.28;;;2.33;;
21326;SDS011;10822;51.532;6.770;2023-04-01T03:52:00;5.38;;;2.85;;
21326;SDS011;10822;51.532;6.770;2023-04-01T03:54:26;6.07;;;3.40;;
21326;SDS011;10822;51.532;6.770;2023-04-01T03:56:52;3.17;;;2.10;;
21326;SDS011;10822;51.532;6.770;2023-04-01T03:59:19;4.00;;;2.08;;
21326;SDS011;10822;51.532;6.770;2023-04-01T04:01:46;4.03;;;2.90;;
21326;SDS011;10822;51.532;6.770;2023-04-01T04:04:12;4.90;;;2.88;;
21326;SDS011;10822;51.532;6.770;2023-04-01T04:06:39;3.40;;;2.45;;
21326;SDS011;10822;51.532;6.770;2023-04-01T04:09:05;3.53;;;2.42;;
21326;SDS011;10822;51.532;6.770;2023-04-01T04:11:31;3.58;;;2.10;;
21326;SDS011;10822;51.532;6.770;2023-04-01T04:13:58;6.05;;;2.45;;
21326;SDS011;10822;51.532;6.770;2023-04-01T04:16:24;3.28;;;2.22;;
21326;SDS011;10822;51.532;6.770;2023-04-01T04:18:50;2.75;;;2.20;;
21326;SDS011;10822;51.532;6.770;2023-04-01T04:21:16;4.38;;;2.47;;
21326;SDS011;10822;51.532;6.770;2023-04-01T04:23:42;3.15;;;2.15;;
21326;SDS011;10822;51.532;6.770;2023-04-01T04:26:10;3.58;;;2.35;;
21326;SDS011;10822;51.532;6.770;2023-04-01T04:28:36;4.00;;;2.58;;
21326;SDS011;10822;51.532;6.770;2023-04-01T04:31:02;5.05;;;2.75;;
21326;SDS011;10822;51.532;6.770;2023-04-01T04:33:32;4.32;;;2.47;;
21326;SDS011;10822;51.532;6.770;2023-04-01T04:35:58;3.97;;;2.60;;
21326;SDS011;10822;51.532;6.770;2023-04-01T04:38:25;5.80;;;3.50;;
21326;SDS011;10822;51.532;6.770;2023-04-01T04:40:51;3.72;;;2.45;;
21326;SDS011;10822;51.532;6.770;2023-04-01T04:43:17;4.40;;;2.83;;
21326;SDS011;10822;51.532;6.770;2023-04-01T04:45:44;5.15;;;2.63;;
21326;SDS011;10822;51.532;6.770;2023-04-01T04:48:10;2.85;;;2.40;;
21326;SDS011;10822;51.532;6.770;2023-04-01T04:50:41;3.30;;;2.28;;
21326;SDS011;10822;51.532;6.770;2023-04-01T04:53:09;3.63;;;2.22;;
21326;SDS011;10822;51.532;6.770;2023-04-01T04:55:35;2.72;;;2.22;;
21326;SDS011;10822;51.532;6.770;2023-04-01T04:58:01;4.18;;;2.00;;
21326;SDS011;10822;51.532;6.770;2023-04-01T05:00:27;2.85;;;2.22;;
21326;SDS011;10822;51.532;6.770;2023-04-01T05:02:53;4.72;;;2.30;;
21326;SDS011;10822;51.532;6.770;2023-04-01T05:05:19;4.60;;;2.53;;
21326;SDS011;10822;51.532;6.770;2023-04-01T05:07:45;4.30;;;2.20;;
21326;SDS011;10822;51.532;6.770;2023-04-01T05:10:11;2.75;;;1.98;;
21326;SDS011;10822;51.532;6.770;2023-04-01T05:12:37;2.53;;;1.98;;
21326;SDS011;10822;51.532;6.770;2023-04-01T05:15:06;2.95;;;2.20;;
21326;SDS011;10822;51.532;6.770;2023-04-01T05:17:32;2.20;;;2.00;;
21326;SDS011;10822;51.532;6.770;2023-04-01T05:19:59;3.95;;;2.33;;
21326;SDS011;10822;51.532;6.770;2023-04-01T05:22:25;2.70;;;2.05;;
21326;SDS011;10822;51.532;6.770;2023-04-01T05:24:51;3.90;;;2.45;;
21326;SDS011;10822;51.532;6.770;2023-04-01T05:27:17;3.22;;;2.08;;
21326;SDS011;10822;51.532;6.770;2023-04-01T05:29:43;2.92;;;2.63;;
21326;SDS011;10822;51.532;6.770;2023-04-01T05:32:09;3.45;;;2.45;;
21326;SDS011;10822;51.532;6.770;2023-04-01T05:34:35;4.40;;;3.55;;
21326;SDS011;10822;51.532;6.770;2023-04-01T05:37:01;4.20;;;3.28;;
21326;SDS011;10822;51.532;6.770;2023-04-01T05:39:27;4.95;;;3.33;;
21326;SDS011;10822;51.532;6.770;2023-04-01T05:41:53;4.78;;;3.33;;
21326;SDS011;10822;51.532;6.770;2023-04-01T05:44:19;5.03;;;3.78;;
21326;SDS011;10822;51.532;6.770;2023-04-01T05:46:45;3.63;;;2.92;;
21326;SDS011;10822;51.532;6.770;2023-04-01T05:49:11;3.63;;;3.08;;
21326;SDS011;10822;51.532;6.770;2023-04-01T05:51:37;3.65;;;2.70;;
21326;SDS011;10822;51.532;6.770;2023-04-01T05:54:04;4.43;;;3.50;;
21326;SDS011;10822;51.532;6.770;2023-04-01T05:56:30;4.15;;;3.47;;
21326;SDS011;10822;51.532;6.770;2023-04-01T05:58:56;5.50;;;3.72;;
21326;SDS011;10822;51.532;6.770;2023-04-01T06:01:22;5.05;;;4.03;;
21326;SDS011;10822;51.532;6.770;2023-04-01T06:03:48;6.00;;;4.22;;
21326;SDS011;10822;51.532;6.770;2023-04-01T06:06:15;3.83;;;3.42;;
21326;SDS011;10822;51.532;6.770;2023-04-01T06:08:41;5.97;;;3.88;;
21326;SDS011;10822;51.532;6.770;2023-04-01T06:17:24;6.05;;;4.25;;
21326;SDS011;10822;51.532;6.770;2023-04-01T06:19:26;5.65;;;4.30;;
21326;SDS011;10822;51.532;6.770;2023-04-01T06:30:29;5.38;;;3.97;;
21326;SDS011;10822;51.532;6.770;2023-04-01T06:32:59;5.00;;;3.80;;
21326;SDS011;10822;51.532;6.770;2023-04-01T06:38:29;4.13;;;3.58;;
21326;SDS011;10822;51.532;6.770;2023-04-01T06:43:54;4.75;;;4.28;;
21326;SDS011;10822;51.532;6.770;2023-04-01T06:54:26;5.70;;;4.20;;
21326;SDS011;10822;51.532;6.770;2023-04-01T06:56:58;5.32;;;4.43;;
21326;SDS011;10822;51.532;6.770;2023-04-01T06:59:25;5.10;;;4.60;;
21326;SDS011;10822;51.532;6.770;2023-04-01T07:01:52;6.97;;;4.93;;
21326;SDS011;10822;51.532;6.770;2023-04-01T07:09:47;5.50;;;4.60;;
21326;SDS011;10822;51.532;6.770;2023-04-01T07:12:15;4.97;;;4.22;;
21326;SDS011;10822;51.532;6.770;2023-04-01T07:14:44;5.47;;;4.65;;
21326;SDS011;10822;51.532;6.770;2023-04-01T07:17:13;4.95;;;4.40;;
21326;SDS011;10822;51.532;6.770;2023-04-01T07:19:50;6.20;;;5.25;;
21326;SDS011;10822;51.532;6.770;2023-04-01T07:24:43;5.10;;;4.40;;
21326;SDS011;10822;51.532;6.770;2023-04-01T07:27:10;4.70;;;4.20;;
21326;SDS011;10822;51.532;6.770;2023-04-01T07:29:36;5.25;;;4.53;;
21326;SDS011;10822;51.532;6.770;2023-04-01T07:32:09;4.78;;;4.28;;
21326;SDS011;10822;51.532;6.770;2023-04-01T07:34:45;6.10;;;5.10;;
21326;SDS011;10822;51.532;6.770;2023-04-01T07:37:17;5.03;;;4.32;;
21326;SDS011;10822;51.532;6.770;2023-04-01T07:39:48;5.82;;;4.32;;
21326;SDS011;10822;51.532;6.770;2023-04-01T07:42:39;5.22;;;4.40;;
21326;SDS011;10822;51.532;6.770;2023-04-01T07:58:21;5.22;;;4.18;;
21326;SDS011;10822;51.532;6.770;2023-04-01T08:00:51;6.57;;;4.38;;
21326;SDS011;10822;51.532;6.770;2023-04-01T08:03:23;5.53;;;4.25;;
21326;SDS011;10822;51.532;6.770;2023-04-01T08:05:55;5.72;;;4.45;;
21326;SDS011;10822;51.532;6.770;2023-04-01T08:08:42;6.50;;;4.50;;
21326;SDS011;10822;51.532;6.770;2023-04-01T08:16:20;7.47;;;5.18;;
21326;SDS011;10822;51.532;6.770;2023-04-01T08:21:22;6.22;;;4.65;;
21326;SDS011;10822;51.532;6.770;2023-04-01T08:23:51;6.30;;;4.55;;
21326;SDS011;10822;51.532;6.770;2023-04-01T08:26:32;6.88;;;4.82;;
21326;SDS011;10822;51.532;6.770;2023-04-01T08:29:09;6.07;;;4.65;;
21326;SDS011;10822;51.532;6.770;2023-04-01T08:31:48;5.88;;;4.70;;
21326;SDS011;10822;51.532;6.770;2023-04-01T08:34:19;8.35;;;5.00;;
21326;SDS011;10822;51.532;6.770;2023-04-01T08:36:51;6.65;;;5.00;;
21326;SDS011;10822;51.532;6.770;2023-04-01T08:41:53;6.28;;;4.78;;
21326;SDS011;10822;51.532;6.770;2023-04-01T08:47:14;5.65;;;4.63;;
21326;SDS011;10822;51.532;6.770;2023-04-01T08:59:55;7.13;;;5.05;;
21326;SDS011;10822;51.532;6.770;2023-04-01T09:12:59;7.57;;;5.25;;
21326;SDS011;10822;51.532;6.770;2023-04-01T09:18:20;8.27;;;5.25;;
21326;SDS011;10822;51.532;6.770;2023-04-01T09:20:58;6.80;;;5.40;;
21326;SDS011;10822;51.532;6.770;2023-04-01T09:26:22;7.93;;;5.68;;
21326;SDS011;10822;51.532;6.770;2023-04-01T09:28:57;8.90;;;6.55;;
21326;SDS011;10822;51.532;6.770;2023-04-01T09:39:48;9.60;;;6.38;;
21326;SDS011;10822;51.532;6.770;2023-04-01T09:43:04;9.43;;;6.90;;
21326;SDS011;10822;51.532;6.770;2023-04-01T09:50:35;8.60;;;6.20;;
21326;SDS011;10822;51.532;6.770;2023-04-01T09:53:16;10.48;;;7.05;;
21326;SDS011;10822;51.532;6.770;2023-04-01T09:55:52;10.05;;;6.38;;
21326;SDS011;10822;51.532;6.770;2023-04-01T09:58:41;7.95;;;5.90;;
21326;SDS011;10822;51.532;6.770;2023-04-01T10:01:29;7.38;;;5.65;;
21326;SDS011;10822;51.532;6.770;2023-04-01T10:17:00;9.20;;;5.97;;
21326;SDS011;10822;51.532;6.770;2023-04-01T10:22:23;6.50;;;5.43;;
21326;SDS011;10822;51.532;6.770;2023-04-01T10:36:10;7.82;;;5.75;;
21326;SDS011;10822;51.532;6.770;2023-04-01T10:44:03;7.15;;;5.65;;
21326;SDS011;10822;51.532;6.770;2023-04-01T10:46:41;7.95;;;5.80;;
21326;SDS011;10822;51.532;6.770;2023-04-01T10:49:21;7.78;;;5.75;;
21326;SDS011;10822;51.532;6.770;2023-04-01T11:07:30;8.02;;;6.50;;
21326;SDS011;10822;51.532;6.770;2023-04-01T11:20:38;7.60;;;6.63;;
21326;SDS011;10822;51.532;6.770;2023-04-01T11:33:23;8.52;;;6.85;;
21326;SDS011;10822;51.532;6.770;2023-04-01T11:41:10;9.18;;;6.45;;
21326;SDS011;10822;51.532;6.770;2023-04-01T11:52:01;10.70;;;6.60;;
21326;SDS011;10822;51.532;6.770;2023-04-01T11:54:43;8.57;;;6.97;;
21326;SDS011;10822;51.532;6.770;2023-04-01T12:02:41;8.43;;;6.88;;
21326;SDS011;10822;51.532;6.770;2023-04-01T12:05:18;9.70;;;6.60;;
21326;SDS011;10822;51.532;6.770;2023-04-01T12:10:18;9.75;;;6.72;;
21326;SDS011;10822;51.532;6.770;2023-04-01T12:12:48;8.98;;;6.35;;
21326;SDS011;10822;51.532;6.770;2023-04-01T12:20:29;6.97;;;6.13;;
21326;SDS011;10822;51.532;6.770;2023-04-01T12:43:48;5.10;;;3.90;;
21326;SDS011;10822;51.532;6.770;2023-04-01T12:46:20;5.30;;;3.53;;
21326;SDS011;10822;51.532;6.770;2023-04-01T13:02:00;4.63;;;3.60;;
21326;SDS011;10822;51.532;6.770;2023-04-01T13:04:39;4.38;;;3.50;;
21326;SDS011;10822;51.532;6.770;2023-04-01T13:09:50;5.13;;;3.90;;
21326;SDS011;10822;51.532;6.770;2023-04-01T13:22:58;11.02;;;9.02;;
21326;SDS011;10822;51.532;6.770;2023-04-01T13:28:23;9.07;;;7.70;;
21326;SDS011;10822;51.532;6.770;2023-04-01T13:31:14;9.60;;;7.03;;
21326;SDS011;10822;51.532;6.770;2023-04-01T13:39:06;7.60;;;6.40;;
21326;SDS011;10822;51.532;6.770;2023-04-01T13:44:10;9.18;;;7.93;;
21326;SDS011;10822;51.532;6.770;2023-04-01T13:49:06;7.95;;;6.93;;
21326;SDS011;10822;51.532;6.770;2023-04-01T13:51:52;8.98;;;7.30;;
21326;SDS011;10822;51.532;6.770;2023-04-01T14:05:15;8.02;;;6.65;;
21326;SDS011;10822;51.532;6.770;2023-04-01T14:10:16;9.18;;;7.90;;
21326;SDS011;10822;51.532;6.770;2023-04-01T14:12:47;9.73;;;7.72;;
21326;SDS011;10822;51.532;6.770;2023-04-01T14:18:13;10.10;;;8.38;;
21326;SDS011;10822;51.532;6.770;2023-04-01T14:31:04;10.60;;;8.65;;
21326;SDS011;10822;51.532;6.770;2023-04-01T14:38:54;11.15;;;8.52;;
21326;SDS011;10822;51.532;6.770;2023-04-01T14:41:28;9.70;;;7.97;;
21326;SDS011;10822;51.532;6.770;2023-04-01T14:46:34;9.38;;;7.38;;
21326;SDS011;10822;51.532;6.770;2023-04-01T14:51:38;10.98;;;8.40;;
21326;SDS011;10822;51.532;6.770;2023-04-01T14:54:21;11.27;;;8.10;;
21326;SDS011;10822;51.532;6.770;2023-04-01T14:59:33;9.52;;;8.05;;
21326;SDS011;10822;51.532;6.770;2023-04-01T15:12:30;8.55;;;7.32;;
21326;SDS011;10822;51.532;6.770;2023-04-01T15:15:14;11.30;;;7.97;;
21326;SDS011;10822;51.532;6.770;2023-04-01T15:40:49;9.38;;;6.63;;
21326;SDS011;10822;51.532;6.770;2023-04-01T15:43:36;6.13;;;5.03;;
21326;SDS011;10822;51.532;6.770;2023-04-01T15:57:28;6.97;;;4.97;;
21326;SDS011;10822;51.532;6.770;2023-04-01T16:10:04;4.95;;;4.45;;
21326;SDS011;10822;51.532;6.770;2023-04-01T16:22:45;6.15;;;4.88;;
21326;SDS011;10822;51.532;6.770;2023-04-01T16:27:46;5.72;;;4.70;;
21326;SDS011;10822;51.532;6.770;2023-04-01T16:33:02;9.00;;;5.93;;
21326;SDS011;10822;51.532;6.770;2023-04-01T16:35:39;9.82;;;6.13;;
21326;SDS011;10822;51.532;6.770;2023-04-01T16:38:09;7.70;;;5.60;;
21326;SDS011;10822;51.532;6.770;2023-04-01T16:40:47;7.78;;;4.93;;
21326;SDS011;10822;51.532;6.770;2023-04-01T16:45:55;8.35;;;5.38;;
21326;SDS011;10822;51.532;6.770;2023-04-01T16:51:04;7.88;;;5.57;;
21326;SDS011;10822;51.532;6.770;2023-04-01T16:53:43;6.28;;;5.00;;
21326;SDS011;10822;51.532;6.770;2023-04-01T16:56:20;9.05;;;6.05;;
21326;SDS011;10822;51.532;6.770;2023-04-01T17:01:20;7.95;;;5.13;;
21326;SDS011;10822;51.532;6.770;2023-04-01T17:03:49;7.65;;;5.60;;
21326;SDS011;10822;51.532;6.770;2023-04-01T17:13:53;10.63;;;6.38;;
21326;SDS011;10822;51.532;6.770;2023-04-01T17:18:53;7.88;;;5.82;;
21326;SDS011;10822;51.532;6.770;2023-04-01T17:21:35;8.52;;;5.97;;
21326;SDS011;10822;51.532;6.770;2023-04-01T17:26:51;9.75;;;6.07;;
21326;SDS011;10822;51.532;6.770;2023-04-01T17:31:58;9.07;;;6.50;;
21326;SDS011;10822;51.532;6.770;2023-04-01T17:34:31;6.80;;;4.70;;
21326;SDS011;10822;51.532;6.770;2023-04-01T17:39:28;6.53;;;5.28;;
21326;SDS011;10822;51.532;6.770;2023-04-01T17:42:06;7.75;;;5.50;;
21326;SDS011;10822;51.532;6.770;2023-04-01T17:59:38;13.05;;;8.00;;
21326;SDS011;10822;51.532;6.770;2023-04-01T18:02:25;11.88;;;8.43;;
21326;SDS011;10822;51.532;6.770;2023-04-01T18:10:08;11.07;;;7.45;;
21326;SDS011;10822;51.532;6.770;2023-04-01T18:12:50;9.65;;;7.32;;
21326;SDS011;10822;51.532;6.770;2023-04-01T18:20:33;8.18;;;6.15;;
21326;SDS011;10822;51.532;6.770;2023-04-01T18:23:06;10.90;;;7.05;;
21326;SDS011;10822;51.532;6.770;2023-04-01T18:25:39;9.60;;;6.85;;
21326;SDS011;10822;51.532;6.770;2023-04-01T18:28:25;9.23;;;6.50;;
21326;SDS011;10822;51.532;6.770;2023-04-01T18:30:58;7.22;;;5.65;;
21326;SDS011;10822;51.532;6.770;2023-04-01T18:52:22;11.63;;;7.63;;
21326;SDS011;10822;51.532;6.770;2023-04-01T18:57:19;5.22;;;4.22;;
21326;SDS011;10822;51.532;6.770;2023-04-01T19:04:45;3.20;;;2.90;;
21326;SDS011;10822;51.532;6.770;2023-04-01T19:09:50;2.83;;;2.60;;
21326;SDS011;10822;51.532;6.770;2023-04-01T19:12:23;3.15;;;2.85;;
21326;SDS011;10822;51.532;6.770;2023-04-01T19:14:59;2.50;;;2.10;;
21326;SDS011;10822;51.532;6.770;2023-04-01T19:25:32;3.10;;;2.63;;
21326;SDS011;10822;51.532;6.770;2023-04-01T19:28:16;2.35;;;2.15;;
21326;SDS011;10822;51.532;6.770;2023-04-01T19:33:39;1.80;;;1.70;;
21326;SDS011;10822;51.532;6.770;2023-04-01T19:36:11;6.18;;;4.47;;
21326;SDS011;10822;51.532;6.770;2023-04-01T19:44:10;2.30;;;2.10;;
21326;SDS011;10822;51.532;6.770;2023-04-01T19:57:09;3.92;;;2.20;;
21326;SDS011;10822;51.532;6.770;2023-04-01T19:59:51;2.13;;;1.92;;
21326;SDS011;10822;51.532;6.770;2023-04-01T20:02:26;1.65;;;1.55;;
21326;SDS011;10822;51.532;6.770;2023-04-01T20:04:55;2.72;;;2.30;;
21326;SDS011;10822;51.532;6.770;2023-04-01T20:09:53;2.75;;;2.45;;
21326;SDS011;10822;51.532;6.770;2023-04-01T20:14:51;2.60;;;2.40;;
21326;SDS011;10822;51.532;6.770;2023-04-01T20:19:44;2.60;;;2.40;;
21326;SDS011;10822;51.532;6.770;2023-04-01T20:24:59;3.70;;;2.58;;
21326;SDS011;10822;51.532;6.770;2023-04-01T20:27:31;2.60;;;2.40;;
21326;SDS011;10822;51.532;6.770;2023-04-01T20:37:44;2.90;;;2.70;;
21326;SDS011;10822;51.532;6.770;2023-04-01T20:40:29;2.20;;;2.00;;
21326;SDS011;10822;51.532;6.770;2023-04-01T20:50:58;2.80;;;2.60;;
21326;SDS011;10822;51.532;6.770;2023-04-01T20:53:44;2.30;;;2.10;;
21326;SDS011;10822;51.532;6.770;2023-04-01T20:58:51;2.10;;;1.90;;
21326;SDS011;10822;51.532;6.770;2023-04-01T21:06:27;2.30;;;2.10;;
21326;SDS011;10822;51.532;6.770;2023-04-01T21:08:59;2.90;;;2.60;;
21326;SDS011;10822;51.532;6.770;2023-04-01T21:29:39;2.60;;;2.40;;
21326;SDS011;10822;51.532;6.770;2023-04-01T21:45:23;2.90;;;2.42;;
21326;SDS011;10822;51.532;6.770;2023-04-01T21:50:41;3.10;;;2.80;;
21326;SDS011;10822;51.532;6.770;2023-04-01T21:58:42;2.65;;;2.42;;
21326;SDS011;10822;51.532;6.770;2023-04-01T22:03:56;2.58;;;2.38;;
21326;SDS011;10822;51.532;6.770;2023-04-01T22:06:41;2.30;;;2.10;;
21326;SDS011;10822;51.532;6.770;2023-04-01T22:11:40;2.58;;;2.20;;
21326;SDS011;10822;51.532;6.770;2023-04-01T22:14:14;2.60;;;2.30;;
21326;SDS011;10822;51.532;6.770;2023-04-01T22:21:46;2.25;;;1.92;;
21326;SDS011;10822;51.532;6.770;2023-04-01T22:24:23;7.70;;;2.38;;
21326;SDS011;10822;51.532;6.770;2023-04-01T22:32:05;7.13;;;3.13;;
21326;SDS011;10822;51.532;6.770;2023-04-01T22:37:20;3.00;;;2.70;;
21326;SDS011;10822;51.532;6.770;2023-04-01T22:39:57;3.13;;;2.70;;
21326;SDS011;10822;51.532;6.770;2023-04-01T22:42:40;3.35;;;2.60;;
21326;SDS011;10822;51.532;6.770;2023-04-01T22:50:19;2.90;;;2.70;;
21326;SDS011;10822;51.532;6.770;2023-04-01T22:52:48;3.53;;;3.22;;
21326;SDS011;10822;51.532;6.770;2023-04-01T22:55:17;4.25;;;3.63;;
21326;SDS011;10822;51.532;6.770;2023-04-01T22:57:53;3.47;;;3.17;;
21326;SDS011;10822;51.532;6.770;2023-04-01T23:05:36;2.70;;;2.50;;
21326;SDS011;10822;51.532;6.770;2023-04-01T23:10:51;3.08;;;2.50;;
21326;SDS011;10822;51.532;6.770;2023-04-01T23:13:21;2.90;;;2.60;;
21326;SDS011;10822;51.532;6.770;2023-04-01T23:15:48;2.40;;;2.20;;
21326;SDS011;10822;51.532;6.770;2023-04-01T23:18:41;2.38;;;2.13;;
21326;SDS011;10822;51.532;6.770;2023-04-01T23:21:13;2.30;;;2.10;;
21326;SDS011;10822;51.532;6.770;2023-04-01T23:28:59;2.30;;;2.10;;
21326;SDS011;10822;51.532;6.770;2023-04-01T23:31:36;2.38;;;2.17;;
21326;SDS011;10822;51.532;6.770;2023-04-01T23:36:29;2.42;;;2.22;;
21326;SDS011;10822;51.532;6.770;2023-04-01T23:38:55;2.13;;;1.92;;
21326;SDS011;10822;51.532;6.770;2023-04-01T23:41:24;2.25;;;2.05;;
21326;SDS011;10822;51.532;6.770;2023-04-01T23:43:55;2.38;;;2.05;;
21326;SDS011;10822;51.532;6.770;2023-04-01T23:46:22;2.83;;;2.33;;
21326;SDS011;10822;51.532;6.770;2023-04-01T23:48:48;2.60;;;2.30;;
21326;SDS011;10822;51.532;6.770;2023-04-01T23:51:27;2.85;;;2.45;;
21326;SDS011;10822;51.532;6.770;2023-04-01T23:54:38;2.63;;;2.40;;
21326;SDS011;10822;51.532;6.770;2023-04-01T23:56:46;2.45;;;2.20;;
21326;SDS011;10822;51.532;6.770;2023-04-01T23:59:14;2.88;;;1.80;;
